Weather reports worldwide

Advertisment
Porthmadog, United Kingdom (99163): temperature & dewpoint: 15.01.2021 00:00:00 - 21.01.2021 00:00:00 (GMT)Porthmadog, United Kingdom (99163): precipitation: 15.01.2021 00:00:00 - 21.01.2021 00:00:00 (GMT)
Date & Time tt [°C] td [°C] rr [mm]
21.01.2021 00:00:00 3,7 2,0 1,0
20.01.2021 23:00:00 2,3 1,7 0,4
20.01.2021 22:00:00 1,9 1,2 0,4
20.01.2021 21:00:00 2,4 1,4 0,6
20.01.2021 20:00:00 3,8 2,6 1,2
20.01.2021 19:00:00 4,2 3,3 0,6
20.01.2021 18:00:00 4,2 2,8 0,8
20.01.2021 17:00:00 5,0 3,6 0,6
20.01.2021 16:00:00 6,3 5,1 0,2
20.01.2021 15:00:00 7,0 6,4 0,4
20.01.2021 14:00:00 7,5 7,4 1,2
20.01.2021 13:00:00 7,3 7,2 3,0
20.01.2021 12:00:00 7,6 7,6 3,2
20.01.2021 11:00:00 8,5 8,5 4,2
20.01.2021 10:00:00 9,2 9,2 7,4
20.01.2021 09:00:00 9,1 9,1 6,2
20.01.2021 08:00:00 8,7 8,7 3,4
20.01.2021 07:00:00 8,8 8,8 2,4
20.01.2021 06:00:00 8,8 8,8 0,6
20.01.2021 05:00:00 8,8 8,8 0,2
20.01.2021 04:00:00 9,0 9,0 0,2
20.01.2021 03:00:00 8,9 8,9 1,8
20.01.2021 02:00:00 9,0 9,0 2,0
20.01.2021 01:00:00 8,8 8,8 3,2
20.01.2021 00:00:00 8,9 8,9 4,6
19.01.2021 23:00:00 8,9 8,9 0,4
19.01.2021 22:00:00 9,0 9,0 1,2
19.01.2021 21:00:00 8,9 8,9 0,4
19.01.2021 20:00:00 8,9 8,9 1,6
19.01.2021 19:00:00 8,6 8,6 3,0
19.01.2021 18:00:00 8,7 8,7 3,0
19.01.2021 17:00:00 8,6 8,6 0,4
19.01.2021 16:00:00 8,6 8,6 1,4
19.01.2021 15:00:00 8,3 8,2 1,2
19.01.2021 14:00:00 8,5 8,4 2,0
19.01.2021 13:00:00 8,4 8,2 1,4
19.01.2021 12:00:00 8,5 8,2 0,4
19.01.2021 11:00:00 8,6 7,8 0,0
19.01.2021 10:00:00 8,9 8,4 0,0
19.01.2021 09:00:00 8,9 8,1 0,0
19.01.2021 08:00:00 8,8 8,6 0,0
19.01.2021 07:00:00 8,8 8,6 0,0
19.01.2021 06:00:00 8,8 8,6 0,6
19.01.2021 05:00:00 8,9 8,8 2,2
19.01.2021 04:00:00 9,0 9,0 3,8
19.01.2021 03:00:00 8,6 8,6 1,8
19.01.2021 02:00:00 8,7 8,7 1,6
19.01.2021 01:00:00 8,0 8,0 2,4
19.01.2021 00:00:00 8,1 8,1 1,8
18.01.2021 23:00:00 8,1 8,1 2,6
18.01.2021 22:00:00 8,2 8,2 0,6
18.01.2021 21:00:00 7,8 7,7 0,4
18.01.2021 20:00:00 7,4 7,3 1,0
18.01.2021 19:00:00 7,5 7,4 0,2
18.01.2021 18:00:00 7,3 7,2 0,2
18.01.2021 17:00:00 7,4 7,3 1,0
18.01.2021 16:00:00 6,7 6,5 1,8
18.01.2021 15:00:00 6,3 6,0 1,2
18.01.2021 14:00:00 6,4 6,1 0,6
18.01.2021 13:00:00 6,1 5,3 0,4
18.01.2021 12:00:00 6,9 5,4 0,2
18.01.2021 11:00:00 7,1 3,5 0,0
18.01.2021 10:00:00 7,0 2,5 0,0
18.01.2021 09:00:00 6,2 3,8 0,0
18.01.2021 08:00:00 6,4 3,3 0,0
18.01.2021 07:00:00 6,0 3,6 0,0
18.01.2021 06:00:00 6,2 3,8 0,0
18.01.2021 05:00:00 6,3 4,3 0,0
18.01.2021 04:00:00 6,1 3,8 0,0
18.01.2021 03:00:00 6,3 4,4 0,0
18.01.2021 02:00:00 5,9 4,5 0,0
18.01.2021 01:00:00 5,3 4,0 0,0
18.01.2021 00:00:00 5,3 3,9 0,0
17.01.2021 23:00:00 5,6 4,8 0,0
17.01.2021 22:00:00 4,9 4,5 0,0
17.01.2021 21:00:00 3,7 3,4 0,0
17.01.2021 20:00:00 2,7 2,3 0,0
17.01.2021 19:00:00 4,1 3,5 0,0
17.01.2021 18:00:00 4,4 3,4 0,0
17.01.2021 17:00:00 5,7 4,0 0,0
17.01.2021 16:00:00 6,8 4,2 0,0
17.01.2021 15:00:00 7,5 4,3 0,0
17.01.2021 14:00:00 7,9 4,2 0,0
17.01.2021 13:00:00 8,0 4,9 0,0
17.01.2021 12:00:00 7,4 4,5 0,0
17.01.2021 11:00:00 7,1 4,3 0,0
17.01.2021 10:00:00 6,6 4,0 0,0
17.01.2021 09:00:00 6,0 3,4 0,0
17.01.2021 08:00:00 6,1 3,6 0,0
17.01.2021 07:00:00 6,0 3,4 0,0
17.01.2021 06:00:00 5,9 3,4 0,0
17.01.2021 05:00:00 5,6 2,9 0,0
17.01.2021 04:00:00 5,8 2,9 0,0
17.01.2021 03:00:00 6,3 2,9 0,0
17.01.2021 02:00:00 6,3 3,6 0,0
17.01.2021 01:00:00 6,0 3,6 1,4
17.01.2021 00:00:00 7,1 3,2 0,0
16.01.2021 23:00:00 7,1 2,9 0,0
16.01.2021 22:00:00 7,3 3,1 0,0
16.01.2021 21:00:00 7,2 2,8 0,0
16.01.2021 20:00:00 7,5 2,9 0,0
16.01.2021 19:00:00 7,0 2,6 0,0
16.01.2021 18:00:00 7,8 2,7 0,0
16.01.2021 17:00:00 7,4 3,1 0,0
16.01.2021 16:00:00 8,2 4,4 0,0
16.01.2021 15:00:00 8,9 5,2 0,0
16.01.2021 14:00:00 9,0 5,1 0,0
16.01.2021 13:00:00 9,1 5,2 0,0
16.01.2021 12:00:00 8,9 5,2 0,0
16.01.2021 11:00:00 8,3 5,9 0,0
16.01.2021 10:00:00 7,7 5,8 0,0
16.01.2021 09:00:00 7,4 5,5 0,0
16.01.2021 08:00:00 7,4 5,5 0,0
16.01.2021 07:00:00 7,9 7,6 0,4
16.01.2021 06:00:00 7,5 7,2 0,6
16.01.2021 05:00:00 7,1 6,4 0,6
16.01.2021 04:00:00 7,2 5,9 0,4
16.01.2021 03:00:00 6,5 5,5 2,0
16.01.2021 02:00:00 6,3 5,0 0,8
16.01.2021 01:00:00 5,8 4,6 1,6
16.01.2021 00:00:00 5,6 4,2 2,0
15.01.2021 23:00:00 5,9 3,2 0,2
15.01.2021 22:00:00 6,2 2,7 0,0
15.01.2021 21:00:00 5,8 2,4 0,0
15.01.2021 20:00:00 5,7 2,2 0,0
15.01.2021 19:00:00 5,3 1,7 0,0
15.01.2021 18:00:00 4,3 1,8 0,0
15.01.2021 17:00:00 3,9 1,6 0,0
15.01.2021 16:00:00 4,3 1,2 0,0
15.01.2021 15:00:00 4,6 1,4 0,0
15.01.2021 14:00:00 4,5 0,7 0,0
15.01.2021 13:00:00 4,7 0,3 0,0
15.01.2021 12:00:00 3,6 0,4 0,0
15.01.2021 11:00:00 2,6 -0,2 0,0
15.01.2021 10:00:00 1,7 -0,2 0,0
15.01.2021 09:00:00 1,6 -0,5 0,0
15.01.2021 08:00:00 1,4 -0,5 0,0
15.01.2021 07:00:00 1,5 -0,5 0,0
15.01.2021 06:00:00 1,5 -0,3 0,0
15.01.2021 05:00:00 1,4 -0,1 0,0
15.01.2021 04:00:00 1,7 0,3 0,0
15.01.2021 03:00:00 2,4 0,3 0,0
15.01.2021 02:00:00 3,8 1,4 0,0
15.01.2021 01:00:00 3,9 1,6 0,0
15.01.2021 00:00:00 4,2 1,9 0,0

tt = temperature
td = dewpoint
rr = precipitation

Next stations